Time;durP1;ratioP1;P1;durP2;ratioP2;P2;SDS_P1;SDS_P2;PMS_P1;PMS_P2;Temp;Humidity;BMP_temperature;BMP_pressure;BME280_temperature;BME280_humidity;BME280_pressure;Samples;Min_cycle;Max_cycle;Signal;HPM_P1;HPM_P2
2023/09/06 00:00:52;;;;;;;2.87;2.67;;;;;;;;;;5073623;28;20190;-81
2023/09/06 00:03:18;;;;;;;2.40;2.30;;;;;;;;;;5073820;28;20691;-81
2023/09/06 00:05:44;;;;;;;4.37;2.60;;;;;;;;;;5074997;28;20188;-81
2023/09/06 00:08:12;;;;;;;2.83;2.63;;;;;;;;;;5069088;28;20228;-81
2023/09/06 00:10:39;;;;;;;2.40;2.20;;;;;;;;;;5072282;28;20177;-81
2023/09/06 00:13:09;;;;;;;3.17;2.97;;;;;;;;;;5069986;28;20300;-81
2023/09/06 00:15:35;;;;;;;2.97;2.77;;;;;;;;;;5073172;28;20204;-80
2023/09/06 00:18:05;;;;;;;3.00;2.60;;;;;;;;;;5072861;28;20195;-81
2023/09/06 00:20:34;;;;;;;2.70;2.50;;;;;;;;;;5073872;28;20197;-81
2023/09/06 00:23:01;;;;;;;4.40;2.60;;;;;;;;;;5073375;28;20192;-81
2023/09/06 00:25:28;;;;;;;2.80;2.60;;;;;;;;;;5073308;28;20180;-81
2023/09/06 00:27:54;;;;;;;3.87;2.40;;;;;;;;;;5067827;28;20216;-81
2023/09/06 00:30:21;;;;;;;2.90;2.70;;;;;;;;;;5070259;28;20268;-81
2023/09/06 00:32:47;;;;;;;5.20;2.50;;;;;;;;;;5072847;28;20624;-81
2023/09/06 00:35:14;;;;;;;4.93;2.70;;;;;;;;;;5073952;28;20377;-81
2023/09/06 00:37:40;;;;;;;2.87;2.67;;;;;;;;;;5075103;28;20268;-81
2023/09/06 00:40:26;;;;;;;2.70;2.50;;;;;;;;;;5070921;28;20219;-81
2023/09/06 00:42:53;;;;;;;3.33;2.90;;;;;;;;;;5063205;28;20662;-81
2023/09/06 00:45:26;;;;;;;2.50;2.30;;;;;;;;;;5071001;28;20663;-81
2023/09/06 00:47:52;;;;;;;2.70;2.50;;;;;;;;;;5070752;28;20234;-81
2023/09/06 00:50:18;;;;;;;2.63;2.43;;;;;;;;;;5075623;28;20280;-81
2023/09/06 00:52:45;;;;;;;2.53;2.20;;;;;;;;;;5068741;28;20188;-81
2023/09/06 00:55:11;;;;;;;5.70;2.53;;;;;;;;;;5055879;28;20192;-81
2023/09/06 00:57:40;;;;;;;3.10;2.80;;;;;;;;;;5073565;28;20177;-81
2023/09/06 01:00:08;;;;;;;2.50;2.30;;;;;;;;;;5069186;28;20187;-81
2023/09/06 01:02:34;;;;;;;3.07;2.60;;;;;;;;;;5070230;28;20557;-81
2023/09/06 01:05:00;;;;;;;2.67;2.33;;;;;;;;;;5072385;28;20536;-81
2023/09/06 01:07:28;;;;;;;3.03;2.73;;;;;;;;;;5073822;28;20293;-81
2023/09/06 01:09:54;;;;;;;2.73;2.50;;;;;;;;;;5073096;28;20203;-81
2023/09/06 01:12:20;;;;;;;3.13;2.30;;;;;;;;;;5069691;28;20906;-77
2023/09/06 01:14:46;;;;;;;3.60;2.23;;;;;;;;;;5051892;28;20212;-77
2023/09/06 01:17:14;;;;;;;3.13;2.60;;;;;;;;;;5047370;28;20192;-80
2023/09/06 01:19:44;;;;;;;2.73;2.53;;;;;;;;;;5071592;28;20186;-77
2023/09/06 01:22:28;;;;;;;2.73;2.50;;;;;;;;;;5073129;28;20241;-78
2023/09/06 01:24:55;;;;;;;3.00;2.70;;;;;;;;;;5070169;28;20180;-77
2023/09/06 01:27:21;;;;;;;3.40;3.20;;;;;;;;;;5069276;28;20219;-79
2023/09/06 01:29:47;;;;;;;5.07;2.67;;;;;;;;;;5070434;28;20184;-78
2023/09/06 01:32:14;;;;;;;3.43;2.67;;;;;;;;;;5070999;28;20207;-82
2023/09/06 01:34:40;;;;;;;4.07;2.73;;;;;;;;;;5069828;28;20563;-84
2023/09/06 01:37:07;;;;;;;4.70;2.90;;;;;;;;;;5072891;28;20272;-84
2023/09/06 01:39:33;;;;;;;2.30;2.20;;;;;;;;;;5069846;28;20426;-80
2023/09/06 01:41:59;;;;;;;3.17;2.63;;;;;;;;;;5046185;28;20171;-86
2023/09/06 01:44:26;;;;;;;3.60;2.33;;;;;;;;;;5071263;28;20203;-84
2023/09/06 01:46:52;;;;;;;3.07;2.77;;;;;;;;;;5074065;28;20189;-85
2023/09/06 01:49:18;;;;;;;2.70;2.50;;;;;;;;;;5067184;28;20195;-86
2023/09/06 01:51:44;;;;;;;3.83;2.53;;;;;;;;;;5069791;28;20452;-86
2023/09/06 01:54:11;;;;;;;3.20;2.90;;;;;;;;;;5071148;28;20206;-87
2023/09/06 01:56:37;;;;;;;2.80;2.60;;;;;;;;;;5064901;28;20195;-83
2023/09/06 01:59:04;;;;;;;6.70;2.83;;;;;;;;;;5069893;28;21025;-86
2023/09/06 02:01:30;;;;;;;3.87;2.67;;;;;;;;;;5068559;28;20513;-88
2023/09/06 02:03:56;;;;;;;3.50;3.20;;;;;;;;;;5065384;28;20187;-86
2023/09/06 02:06:22;;;;;;;2.57;2.20;;;;;;;;;;5067981;28;20184;-86
2023/09/06 02:08:49;;;;;;;3.87;2.77;;;;;;;;;;5063548;28;20243;-87
2023/09/06 02:11:15;;;;;;;3.10;2.90;;;;;;;;;;5049966;28;20369;-84
2023/09/06 02:13:41;;;;;;;2.83;2.63;;;;;;;;;;5067381;28;20250;-87
2023/09/06 02:16:07;;;;;;;4.00;3.00;;;;;;;;;;5064652;28;20286;-83
2023/09/06 02:18:33;;;;;;;4.00;2.50;;;;;;;;;;5066103;28;20538;-88
2023/09/06 02:21:01;;;;;;;3.07;2.83;;;;;;;;;;5068541;28;20653;-82
2023/09/06 02:23:27;;;;;;;2.77;2.57;;;;;;;;;;5070105;28;20195;-82
2023/09/06 02:25:53;;;;;;;4.07;2.57;;;;;;;;;;5075285;28;20193;-82
2023/09/06 02:28:19;;;;;;;4.63;2.53;;;;;;;;;;5054049;28;20673;-82
2023/09/06 02:30:46;;;;;;;4.27;2.67;;;;;;;;;;5064092;28;20186;-81
2023/09/06 02:33:13;;;;;;;3.30;2.70;;;;;;;;;;5069822;28;20619;-82
2023/09/06 02:35:40;;;;;;;3.00;2.70;;;;;;;;;;5072977;28;20181;-82
2023/09/06 02:38:10;;;;;;;2.60;2.40;;;;;;;;;;5068999;28;20185;-82
2023/09/06 02:40:36;;;;;;;3.60;2.97;;;;;;;;;;5071524;28;20185;-82
2023/09/06 02:43:04;;;;;;;3.77;2.33;;;;;;;;;;5068800;28;20285;-81
2023/09/06 02:45:36;;;;;;;2.77;2.57;;;;;;;;;;5070004;28;20184;-80
2023/09/06 02:48:06;;;;;;;2.97;2.77;;;;;;;;;;5067009;28;20188;-80
2023/09/06 02:50:34;;;;;;;3.17;2.53;;;;;;;;;;5071290;28;20188;-79
2023/09/06 02:53:03;;;;;;;2.87;2.37;;;;;;;;;;5074037;28;20712;-79
2023/09/06 02:55:35;;;;;;;2.90;2.60;;;;;;;;;;5069805;28;20192;-80
2023/09/06 02:58:01;;;;;;;2.80;2.47;;;;;;;;;;5074003;28;20176;-79
2023/09/06 03:00:29;;;;;;;2.50;2.30;;;;;;;;;;5071659;28;20626;-80
2023/09/06 03:03:05;;;;;;;2.60;2.40;;;;;;;;;;5071477;28;20196;-79
2023/09/06 03:05:31;;;;;;;2.83;2.63;;;;;;;;;;5074128;28;20176;-79
2023/09/06 03:07:57;;;;;;;3.23;2.37;;;;;;;;;;5073578;28;20224;-79
2023/09/06 03:10:23;;;;;;;3.07;2.53;;;;;;;;;;5072708;28;20203;-79
2023/09/06 03:12:56;;;;;;;2.90;2.63;;;;;;;;;;5073401;28;20275;-79
2023/09/06 03:15:27;;;;;;;2.60;2.40;;;;;;;;;;5052855;28;20192;-79
2023/09/06 03:17:53;;;;;;;3.50;2.73;;;;;;;;;;5072267;28;20184;-80
2023/09/06 03:20:42;;;;;;;2.30;2.13;;;;;;;;;;5054807;28;20203;-79
2023/09/06 03:23:17;;;;;;;2.53;2.33;;;;;;;;;;5068915;28;20188;-79
2023/09/06 03:25:50;;;;;;;2.83;2.63;;;;;;;;;;5065532;28;20633;-79
2023/09/06 03:28:18;;;;;;;2.57;2.37;;;;;;;;;;5070976;28;20204;-81
2023/09/06 03:30:44;;;;;;;2.57;2.37;;;;;;;;;;5071360;28;20599;-80
2023/09/06 03:33:11;;;;;;;4.00;3.60;;;;;;;;;;5072497;28;20264;-78
2023/09/06 03:35:37;;;;;;;3.10;2.90;;;;;;;;;;5063737;28;20199;-78
2023/09/06 03:38:08;;;;;;;2.77;2.53;;;;;;;;;;5071715;28;20179;-77
2023/09/06 03:40:37;;;;;;;2.60;2.40;;;;;;;;;;5070012;28;20279;-79
2023/09/06 03:43:04;;;;;;;3.80;2.50;;;;;;;;;;5063026;28;20189;-79
2023/09/06 03:45:31;;;;;;;2.77;2.57;;;;;;;;;;5066531;28;20627;-78
2023/09/06 03:47:57;;;;;;;3.70;2.87;;;;;;;;;;5069946;28;20176;-80
2023/09/06 03:50:26;;;;;;;3.13;2.60;;;;;;;;;;5064059;28;20303;-77
2023/09/06 03:52:52;;;;;;;2.67;2.47;;;;;;;;;;5073281;28;20905;-85
2023/09/06 03:55:18;;;;;;;3.37;2.50;;;;;;;;;;5077325;28;20185;-84
2023/09/06 03:57:44;;;;;;;2.60;2.40;;;;;;;;;;5069355;28;20678;-84
2023/09/06 04:00:24;;;;;;;2.60;2.40;;;;;;;;;;5076329;28;20689;-84
2023/09/06 04:02:53;;;;;;;3.27;2.90;;;;;;;;;;5055414;28;20287;-84
2023/09/06 04:05:22;;;;;;;3.90;3.63;;;;;;;;;;5074213;28;20246;-85
2023/09/06 04:07:49;;;;;;;3.90;2.47;;;;;;;;;;5077359;28;20745;-85
2023/09/06 04:10:21;;;;;;;3.63;2.40;;;;;;;;;;5076275;28;20579;-82
2023/09/06 04:12:47;;;;;;;4.37;2.80;;;;;;;;;;5071536;28;20196;-85
2023/09/06 04:15:13;;;;;;;2.70;2.30;;;;;;;;;;5075446;28;20690;-86
2023/09/06 04:17:43;;;;;;;3.43;2.70;;;;;;;;;;5073726;28;20176;-83
2023/09/06 04:20:19;;;;;;;3.17;2.97;;;;;;;;;;5053111;28;20516;-83
2023/09/06 04:22:45;;;;;;;3.30;2.30;;;;;;;;;;5073225;28;20256;-85
2023/09/06 04:25:12;;;;;;;3.43;3.20;;;;;;;;;;5070478;28;20191;-85
2023/09/06 04:27:39;;;;;;;3.13;2.87;;;;;;;;;;5073929;28;20695;-85
2023/09/06 04:30:06;;;;;;;2.70;2.50;;;;;;;;;;5068826;28;20557;-83
2023/09/06 04:32:34;;;;;;;2.70;2.50;;;;;;;;;;5074037;28;20195;-86
2023/09/06 04:35:00;;;;;;;2.70;2.50;;;;;;;;;;5074971;28;20269;-83
2023/09/06 04:37:26;;;;;;;3.10;2.80;;;;;;;;;;5075068;28;20202;-85
2023/09/06 04:39:53;;;;;;;3.37;2.90;;;;;;;;;;5073839;28;20223;-86
2023/09/06 04:42:19;;;;;;;3.23;2.90;;;;;;;;;;5074887;28;20546;-78
2023/09/06 04:44:45;;;;;;;3.07;2.87;;;;;;;;;;5075125;28;20237;-78
2023/09/06 04:47:15;;;;;;;3.23;2.93;;;;;;;;;;5074156;28;20186;-81
2023/09/06 04:49:42;;;;;;;3.80;3.30;;;;;;;;;;5065691;28;20546;-78
2023/09/06 04:52:08;;;;;;;3.60;3.30;;;;;;;;;;5073185;28;20194;-78
2023/09/06 04:54:34;;;;;;;3.33;3.10;;;;;;;;;;5070710;28;20250;-77
2023/09/06 04:57:00;;;;;;;4.20;2.60;;;;;;;;;;5070770;28;20225;-79
2023/09/06 04:59:26;;;;;;;3.43;3.10;;;;;;;;;;5068492;28;20227;-79
2023/09/06 05:01:52;;;;;;;2.77;2.57;;;;;;;;;;5072448;28;20180;-79
2023/09/06 05:04:19;;;;;;;3.37;2.80;;;;;;;;;;5069270;28;20193;-80
2023/09/06 05:06:45;;;;;;;5.83;2.90;;;;;;;;;;5074521;28;20577;-80
2023/09/06 05:09:15;;;;;;;2.87;2.67;;;;;;;;;;5070472;28;20183;-81
2023/09/06 05:11:41;;;;;;;4.30;2.73;;;;;;;;;;5072056;28;20195;-81
2023/09/06 05:14:07;;;;;;;4.23;3.03;;;;;;;;;;5074124;28;20729;-84
2023/09/06 05:16:33;;;;;;;3.23;2.93;;;;;;;;;;5072987;28;20183;-83
2023/09/06 05:18:59;;;;;;;5.37;2.80;;;;;;;;;;5070936;28;20182;-82
2023/09/06 05:21:25;;;;;;;3.37;2.63;;;;;;;;;;5070612;28;20581;-82
2023/09/06 05:23:51;;;;;;;2.90;2.60;;;;;;;;;;5064127;28;20215;-85
2023/09/06 05:26:17;;;;;;;2.70;2.50;;;;;;;;;;5069996;28;20243;-81
2023/09/06 05:28:43;;;;;;;3.03;2.80;;;;;;;;;;5069074;28;20704;-80
2023/09/06 05:31:10;;;;;;;4.63;2.73;;;;;;;;;;5071903;28;20198;-80
2023/09/06 05:33:35;;;;;;;3.70;2.77;;;;;;;;;;5048839;28;20542;-81
2023/09/06 05:36:03;;;;;;;3.03;2.80;;;;;;;;;;5072001;28;20177;-78
2023/09/06 05:38:29;;;;;;;3.80;2.90;;;;;;;;;;5067457;28;20233;-78
2023/09/06 05:40:55;;;;;;;5.70;3.17;;;;;;;;;;5068894;28;20185;-78
2023/09/06 05:43:21;;;;;;;3.50;3.13;;;;;;;;;;5071208;28;20232;-80
2023/09/06 05:45:47;;;;;;;3.70;3.30;;;;;;;;;;5071172;28;20752;-78
2023/09/06 05:48:13;;;;;;;4.53;3.20;;;;;;;;;;5069504;28;20782;-78
2023/09/06 05:50:39;;;;;;;5.97;3.60;;;;;;;;;;5070981;28;20218;-82
2023/09/06 05:53:05;;;;;;;7.27;3.50;;;;;;;;;;5069773;28;20191;-81
2023/09/06 05:55:31;;;;;;;7.23;4.63;;;;;;;;;;5072496;28;20275;-79
2023/09/06 05:57:57;;;;;;;6.30;3.13;;;;;;;;;;5071392;28;20263;-80
2023/09/06 06:00:26;;;;;;;3.93;3.37;;;;;;;;;;5071321;28;20181;-80
2023/09/06 06:02:55;;;;;;;5.60;3.83;;;;;;;;;;5066141;28;20169;-79
2023/09/06 06:05:21;;;;;;;5.57;3.90;;;;;;;;;;5073059;28;20206;-81
2023/09/06 06:07:47;;;;;;;5.60;4.10;;;;;;;;;;5073906;28;20232;-81
2023/09/06 06:10:13;;;;;;;3.83;3.27;;;;;;;;;;5072244;28;20342;-80
2023/09/06 06:12:39;;;;;;;6.50;3.30;;;;;;;;;;5068618;28;20258;-80
2023/09/06 06:15:09;;;;;;;7.10;3.83;;;;;;;;;;5069985;28;20203;-80
2023/09/06 06:17:35;;;;;;;7.93;3.43;;;;;;;;;;5072715;28;20293;-81
2023/09/06 06:20:03;;;;;;;3.50;3.20;;;;;;;;;;5073562;28;20596;-81
2023/09/06 06:22:29;;;;;;;4.80;3.70;;;;;;;;;;5074224;28;20585;-81
2023/09/06 06:25:00;;;;;;;4.00;3.20;;;;;;;;;;5072656;28;20195;-80
2023/09/06 06:27:26;;;;;;;5.63;3.77;;;;;;;;;;5070825;28;20185;-82
2023/09/06 06:29:52;;;;;;;7.07;3.27;;;;;;;;;;5049825;28;20191;-81
2023/09/06 06:32:19;;;;;;;4.40;3.87;;;;;;;;;;5069776;28;20665;-80
2023/09/06 06:34:49;;;;;;;5.37;3.27;;;;;;;;;;5071182;28;20264;-80
2023/09/06 06:37:15;;;;;;;4.43;3.40;;;;;;;;;;5068861;28;20240;-81
2023/09/06 06:39:41;;;;;;;5.53;4.03;;;;;;;;;;5062962;28;20242;-81
2023/09/06 06:42:07;;;;;;;4.83;3.53;;;;;;;;;;5063946;28;20636;-79
2023/09/06 06:44:34;;;;;;;4.83;3.83;;;;;;;;;;5048838;28;20230;-78
2023/09/06 06:47:00;;;;;;;6.53;3.83;;;;;;;;;;5065398;28;20181;-78
2023/09/06 06:49:26;;;;;;;4.57;3.23;;;;;;;;;;5071040;28;20184;-79
2023/09/06 06:51:52;;;;;;;4.30;3.90;;;;;;;;;;5072837;28;20273;-80
2023/09/06 06:54:19;;;;;;;3.50;3.20;;;;;;;;;;5071123;28;20205;-81
2023/09/06 06:56:46;;;;;;;4.00;3.60;;;;;;;;;;5072168;28;20176;-81
2023/09/06 06:59:13;;;;;;;3.73;3.43;;;;;;;;;;5061622;28;20681;-80
2023/09/06 07:01:39;;;;;;;3.30;3.00;;;;;;;;;;5071522;28;20177;-81
2023/09/06 07:04:05;;;;;;;3.87;3.57;;;;;;;;;;5071492;28;20186;-81
2023/09/06 07:06:31;;;;;;;5.23;3.47;;;;;;;;;;5072011;28;20250;-79
2023/09/06 07:08:58;;;;;;;3.77;3.40;;;;;;;;;;5074233;28;20195;-79
2023/09/06 07:11:24;;;;;;;4.13;3.13;;;;;;;;;;5061904;28;20642;-80
2023/09/06 07:13:50;;;;;;;3.60;3.30;;;;;;;;;;5072715;28;20204;-79
2023/09/06 07:16:20;;;;;;;4.53;3.40;;;;;;;;;;5051422;28;20265;-80
2023/09/06 07:18:47;;;;;;;4.27;3.40;;;;;;;;;;5050230;28;20256;-79
2023/09/06 07:21:13;;;;;;;3.83;3.37;;;;;;;;;;5063326;28;20198;-79
2023/09/06 07:23:40;;;;;;;4.50;3.30;;;;;;;;;;5068639;28;20285;-84
2023/09/06 07:26:06;;;;;;;4.00;3.60;;;;;;;;;;5069099;28;20227;-83
2023/09/06 07:28:40;;;;;;;5.10;3.73;;;;;;;;;;5049830;28;20714;-82
2023/09/06 07:31:06;;;;;;;4.90;3.60;;;;;;;;;;5077421;28;20197;-82
2023/09/06 07:33:32;;;;;;;4.33;3.93;;;;;;;;;;5078297;28;20202;-83
2023/09/06 07:35:58;;;;;;;4.97;3.47;;;;;;;;;;5078454;28;20221;-82
2023/09/06 07:38:25;;;;;;;4.37;3.77;;;;;;;;;;5078101;28;20741;-84
2023/09/06 07:41:01;;;;;;;3.73;3.37;;;;;;;;;;5078614;28;20184;-83
2023/09/06 07:43:28;;;;;;;3.90;3.60;;;;;;;;;;5078616;28;20291;-82
2023/09/06 07:45:56;;;;;;;5.00;3.70;;;;;;;;;;5072619;28;20185;-83
2023/09/06 07:48:23;;;;;;;4.90;3.40;;;;;;;;;;5057273;28;20267;-84
2023/09/06 07:50:50;;;;;;;3.53;3.20;;;;;;;;;;5076509;28;20255;-83
2023/09/06 07:53:16;;;;;;;4.17;3.43;;;;;;;;;;5072345;28;20206;-82
2023/09/06 07:55:48;;;;;;;5.60;3.60;;;;;;;;;;5074894;28;20304;-83
2023/09/06 07:58:15;;;;;;;4.07;3.30;;;;;;;;;;5060230;28;20185;-83
2023/09/06 08:00:41;;;;;;;5.20;3.30;;;;;;;;;;5075345;28;20183;-83
2023/09/06 08:03:07;;;;;;;4.77;3.77;;;;;;;;;;5075190;28;20210;-83
2023/09/06 08:05:35;;;;;;;4.67;3.30;;;;;;;;;;5076082;28;20230;-82
2023/09/06 08:08:01;;;;;;;4.77;3.50;;;;;;;;;;5070208;28;20730;-83
2023/09/06 08:10:27;;;;;;;4.57;3.57;;;;;;;;;;5077376;28;20223;-84
2023/09/06 08:12:53;;;;;;;5.13;4.10;;;;;;;;;;5075848;28;20184;-81
2023/09/06 08:15:19;;;;;;;3.40;3.10;;;;;;;;;;5070939;28;20790;-81
2023/09/06 08:17:47;;;;;;;3.90;3.40;;;;;;;;;;5054306;28;20176;-83
2023/09/06 08:20:14;;;;;;;6.87;3.53;;;;;;;;;;5074567;28;20632;-80
2023/09/06 08:22:41;;;;;;;4.73;3.50;;;;;;;;;;5070878;28;20644;-80
2023/09/06 08:25:07;;;;;;;8.57;3.93;;;;;;;;;;5077356;28;20676;-80
2023/09/06 08:27:33;;;;;;;3.20;3.00;;;;;;;;;;5076842;28;20271;-80
2023/09/06 08:29:59;;;;;;;4.20;3.33;;;;;;;;;;5070632;28;20208;-80
2023/09/06 08:32:25;;;;;;;4.37;3.80;;;;;;;;;;5075528;28;20176;-81
2023/09/06 08:34:51;;;;;;;3.90;3.60;;;;;;;;;;5059472;28;20199;-81
2023/09/06 08:37:17;;;;;;;4.33;3.50;;;;;;;;;;5075137;28;20188;-81
2023/09/06 08:39:43;;;;;;;6.00;3.88;;;;;;;;;;5077063;28;20180;-81
2023/09/06 08:42:10;;;;;;;3.90;3.60;;;;;;;;;;5077136;28;20168;-81
2023/09/06 08:44:37;;;;;;;6.53;3.58;;;;;;;;;;5076970;28;20184;-81
2023/09/06 08:47:05;;;;;;;4.63;3.58;;;;;;;;;;5078031;28;20623;-80
2023/09/06 08:49:32;;;;;;;4.65;4.13;;;;;;;;;;5077462;28;20640;-80
2023/09/06 08:51:59;;;;;;;4.85;4.20;;;;;;;;;;5070859;28;20180;-81
2023/09/06 08:54:25;;;;;;;4.25;3.85;;;;;;;;;;5053575;28;20570;-80
2023/09/06 08:56:52;;;;;;;4.22;3.88;;;;;;;;;;5072050;28;20616;-80
2023/09/06 08:59:19;;;;;;;5.43;3.63;;;;;;;;;;5074321;28;20255;-81
2023/09/06 09:01:45;;;;;;;7.95;3.90;;;;;;;;;;5074107;28;20216;-81
2023/09/06 09:04:12;;;;;;;4.20;3.90;;;;;;;;;;5071259;28;20184;-80
2023/09/06 09:06:42;;;;;;;5.32;3.70;;;;;;;;;;5073906;28;20231;-81
2023/09/06 09:09:16;;;;;;;4.38;3.97;;;;;;;;;;5074412;28;20173;-82
2023/09/06 09:11:45;;;;;;;4.40;4.00;;;;;;;;;;5073086;28;20184;-81
2023/09/06 09:14:25;;;;;;;4.68;3.85;;;;;;;;;;5072332;28;20726;-81
2023/09/06 09:16:58;;;;;;;4.80;4.20;;;;;;;;;;5067904;28;20263;-81
2023/09/06 09:19:24;;;;;;;3.80;3.50;;;;;;;;;;5069947;28;20164;-80
2023/09/06 09:21:50;;;;;;;4.20;3.58;;;;;;;;;;5066786;28;20177;-80
2023/09/06 09:24:26;;;;;;;4.30;3.90;;;;;;;;;;5067851;28;20246;-80
2023/09/06 09:26:53;;;;;;;3.67;3.38;;;;;;;;;;5065810;28;20180;-81
2023/09/06 09:29:19;;;;;;;4.00;3.70;;;;;;;;;;5067692;28;20215;-81
2023/09/06 09:31:46;;;;;;;4.53;3.78;;;;;;;;;;5068143;28;20238;-81
2023/09/06 09:34:12;;;;;;;4.25;3.80;;;;;;;;;;5069567;28;20226;-81
2023/09/06 09:36:39;;;;;;;4.55;4.10;;;;;;;;;;5067503;28;20188;-81
2023/09/06 09:39:10;;;;;;;3.92;3.63;;;;;;;;;;5066896;28;20180;-81
2023/09/06 09:41:43;;;;;;;3.90;3.60;;;;;;;;;;5069721;28;20623;-81
2023/09/06 09:44:13;;;;;;;5.80;4.40;;;;;;;;;;5068971;28;20680;-81
2023/09/06 09:46:40;;;;;;;4.32;3.92;;;;;;;;;;5054408;28;20186;-81
2023/09/06 09:49:07;;;;;;;4.00;3.70;;;;;;;;;;5072714;28;20548;-81
2023/09/06 09:51:34;;;;;;;4.68;4.03;;;;;;;;;;5067713;28;20181;-81
2023/09/06 09:54:00;;;;;;;4.35;3.95;;;;;;;;;;5074656;28;20196;-81
2023/09/06 09:56:28;;;;;;;4.57;4.18;;;;;;;;;;5073144;28;20890;-81
2023/09/06 09:58:57;;;;;;;3.75;3.38;;;;;;;;;;5075487;28;20276;-82
2023/09/06 10:01:23;;;;;;;4.68;4.28;;;;;;;;;;5073577;28;20173;-81
2023/09/06 10:03:50;;;;;;;5.05;4.47;;;;;;;;;;5073961;28;20523;-80
2023/09/06 10:06:16;;;;;;;4.18;3.75;;;;;;;;;;5070193;28;20189;-80
2023/09/06 10:08:44;;;;;;;3.78;3.38;;;;;;;;;;5052129;28;20203;-82
2023/09/06 10:11:10;;;;;;;4.18;3.78;;;;;;;;;;5073159;28;20184;-81
2023/09/06 10:13:39;;;;;;;5.18;3.85;;;;;;;;;;5074220;28;20213;-81
2023/09/06 10:16:07;;;;;;;4.30;4.00;;;;;;;;;;5054448;28;20193;-82
2023/09/06 10:18:33;;;;;;;7.00;3.83;;;;;;;;;;5072064;28;20177;-80
2023/09/06 10:21:03;;;;;;;6.57;3.97;;;;;;;;;;5047517;28;20628;-80
2023/09/06 10:23:31;;;;;;;4.68;4.00;;;;;;;;;;5072033;28;20189;-81
2023/09/06 10:25:59;;;;;;;3.90;3.60;;;;;;;;;;5070393;28;20177;-82
2023/09/06 10:28:31;;;;;;;5.55;3.80;;;;;;;;;;5070275;28;20221;-81
2023/09/06 10:31:10;;;;;;;4.22;3.83;;;;;;;;;;5073798;28;20630;-82
2023/09/06 10:33:36;;;;;;;4.20;3.90;;;;;;;;;;5068905;28;20204;-83
2023/09/06 10:36:09;;;;;;;4.55;3.97;;;;;;;;;;5057252;28;20652;-82
2023/09/06 10:38:54;;;;;;;4.20;3.90;;;;;;;;;;5068853;28;20275;-82
2023/09/06 10:41:21;;;;;;;5.05;4.18;;;;;;;;;;5068506;28;20176;-82
2023/09/06 10:43:59;;;;;;;4.18;3.53;;;;;;;;;;5068923;28;20697;-82
2023/09/06 10:46:29;;;;;;;5.70;4.25;;;;;;;;;;5068752;28;20180;-83
2023/09/06 10:49:13;;;;;;;6.53;4.32;;;;;;;;;;5071515;28;20192;-83
2023/09/06 10:51:58;;;;;;;4.03;3.47;;;;;;;;;;5069817;28;20219;-83
2023/09/06 10:54:34;;;;;;;4.13;3.75;;;;;;;;;;5071334;28;20212;-85
2023/09/06 10:57:05;;;;;;;4.40;3.90;;;;;;;;;;5075870;28;20883;-88
2023/09/06 10:59:32;;;;;;;5.25;4.25;;;;;;;;;;5070420;28;20271;-85
2023/09/06 11:02:08;;;;;;;4.25;3.85;;;;;;;;;;5073892;28;20632;-87
2023/09/06 11:04:34;;;;;;;4.85;4.10;;;;;;;;;;5073273;28;20587;-83
2023/09/06 11:07:09;;;;;;;4.90;4.00;;;;;;;;;;5070320;28;20259;-87
2023/09/06 11:09:35;;;;;;;4.85;3.67;;;;;;;;;;5069968;28;20202;-85
2023/09/06 11:12:03;;;;;;;3.92;3.63;;;;;;;;;;5077180;28;20207;-85
2023/09/06 11:14:29;;;;;;;4.43;3.70;;;;;;;;;;5057828;28;20281;-85
2023/09/06 11:16:56;;;;;;;4.28;3.88;;;;;;;;;;5057356;28;20188;-87
2023/09/06 11:19:31;;;;;;;5.20;3.90;;;;;;;;;;5073672;28;20177;-85
2023/09/06 11:22:23;;;;;;;3.42;3.13;;;;;;;;;;5070045;28;20169;-85
2023/09/06 11:24:49;;;;;;;4.53;3.60;;;;;;;;;;5068186;28;20196;-85
2023/09/06 11:27:15;;;;;;;4.78;4.30;;;;;;;;;;5053620;28;20190;-88
2023/09/06 11:29:43;;;;;;;4.18;3.83;;;;;;;;;;5074208;28;20204;-85
2023/09/06 11:32:11;;;;;;;4.03;3.65;;;;;;;;;;5072833;28;20248;-83
2023/09/06 11:34:46;;;;;;;4.93;3.40;;;;;;;;;;5071778;28;20196;-84
2023/09/06 11:37:15;;;;;;;4.32;3.53;;;;;;;;;;5071408;28;20184;-86
2023/09/06 11:39:42;;;;;;;3.75;3.45;;;;;;;;;;5070270;28;20185;-83
2023/09/06 11:42:10;;;;;;;3.92;3.63;;;;;;;;;;5072016;28;20180;-85
2023/09/06 11:44:42;;;;;;;4.25;3.85;;;;;;;;;;5072752;28;20244;-81
2023/09/06 11:47:09;;;;;;;3.67;3.35;;;;;;;;;;5070507;28;20259;-83
2023/09/06 11:49:35;;;;;;;4.13;3.72;;;;;;;;;;5073799;28;20188;-83
2023/09/06 11:52:05;;;;;;;6.57;4.00;;;;;;;;;;5070991;28;20237;-83
2023/09/06 11:54:32;;;;;;;5.13;3.85;;;;;;;;;;5069692;28;20230;-84
2023/09/06 11:56:58;;;;;;;4.00;3.70;;;;;;;;;;5070125;28;20200;-84
2023/09/06 11:59:25;;;;;;;5.38;4.25;;;;;;;;;;5078796;28;20220;-84
2023/09/06 12:01:58;;;;;;;3.90;3.60;;;;;;;;;;5069948;28;20176;-83
2023/09/06 12:04:26;;;;;;;3.95;3.65;;;;;;;;;;5066987;28;20174;-84
2023/09/06 12:06:55;;;;;;;4.25;3.85;;;;;;;;;;5069584;28;20290;-82
2023/09/06 12:09:21;;;;;;;4.32;3.85;;;;;;;;;;5066973;28;20272;-83
2023/09/06 12:11:47;;;;;;;3.90;3.60;;;;;;;;;;5068601;28;20212;-83
2023/09/06 12:14:15;;;;;;;4.03;3.72;;;;;;;;;;5077342;28;20593;-82
2023/09/06 12:16:41;;;;;;;4.35;3.30;;;;;;;;;;5076673;28;20161;-82
2023/09/06 12:19:11;;;;;;;3.97;3.67;;;;;;;;;;5077614;28;20238;-82
2023/09/06 12:21:37;;;;;;;3.30;3.10;;;;;;;;;;5077217;28;20168;-84
2023/09/06 12:24:04;;;;;;;3.65;3.35;;;;;;;;;;5078048;28;20199;-83
2023/09/06 12:26:30;;;;;;;4.10;3.70;;;;;;;;;;5078551;28;20173;-82
2023/09/06 12:28:56;;;;;;;4.22;3.78;;;;;;;;;;5078525;28;20226;-82
2023/09/06 12:31:22;;;;;;;3.75;3.45;;;;;;;;;;5073691;28;20177;-82
2023/09/06 12:33:51;;;;;;;3.90;3.60;;;;;;;;;;5076828;28;20246;-82
2023/09/06 12:36:18;;;;;;;3.20;3.00;;;;;;;;;;5070906;28;20192;-82
2023/09/06 12:38:44;;;;;;;3.67;3.38;;;;;;;;;;5074178;28;20165;-83
2023/09/06 12:41:10;;;;;;;3.78;3.47;;;;;;;;;;5073725;28;20203;-83
2023/09/06 12:43:37;;;;;;;4.07;3.67;;;;;;;;;;5074384;28;20173;-83
2023/09/06 12:46:06;;;;;;;3.90;3.60;;;;;;;;;;5071014;28;20255;-83
2023/09/06 12:48:32;;;;;;;3.92;3.60;;;;;;;;;;5071406;28;20245;-83
2023/09/06 12:50:58;;;;;;;3.75;3.45;;;;;;;;;;5072892;28;20201;-83
2023/09/06 12:53:24;;;;;;;3.80;3.45;;;;;;;;;;5075494;28;20183;-83
2023/09/06 12:55:50;;;;;;;3.20;3.00;;;;;;;;;;5074873;28;20180;-81
2023/09/06 12:58:16;;;;;;;3.30;3.00;;;;;;;;;;5072434;28;20181;-81
2023/09/06 13:00:42;;;;;;;4.35;3.03;;;;;;;;;;5069733;28;20181;-81
2023/09/06 13:03:08;;;;;;;3.33;3.03;;;;;;;;;;5078204;28;20206;-80
2023/09/06 13:05:34;;;;;;;3.53;3.10;;;;;;;;;;5080279;28;20169;-82
2023/09/06 13:08:01;;;;;;;3.63;3.33;;;;;;;;;;5081538;28;20228;-82
2023/09/06 13:10:29;;;;;;;4.13;3.42;;;;;;;;;;5081058;28;20690;-82
2023/09/06 13:12:55;;;;;;;3.50;3.22;;;;;;;;;;5066966;28;20204;-81
2023/09/06 13:15:21;;;;;;;3.72;3.42;;;;;;;;;;5066300;28;20200;-84
2023/09/06 13:17:47;;;;;;;5.20;3.88;;;;;;;;;;5070853;28;20260;-83
2023/09/06 13:20:13;;;;;;;3.80;3.50;;;;;;;;;;5079325;28;20181;-84
2023/09/06 13:22:39;;;;;;;4.45;3.50;;;;;;;;;;5077277;28;20326;-81
2023/09/06 13:25:06;;;;;;;3.33;3.10;;;;;;;;;;5080205;28;20198;-81
2023/09/06 13:27:33;;;;;;;4.75;4.25;;;;;;;;;;5080359;28;20175;-81
2023/09/06 13:29:59;;;;;;;4.15;3.75;;;;;;;;;;5079746;28;20160;-81
2023/09/06 13:32:25;;;;;;;3.35;3.05;;;;;;;;;;5078845;28;20176;-81
2023/09/06 13:34:52;;;;;;;3.35;3.15;;;;;;;;;;5080069;28;20200;-81
2023/09/06 13:37:18;;;;;;;3.70;3.40;;;;;;;;;;5080726;28;20177;-81
2023/09/06 13:39:46;;;;;;;3.55;3.28;;;;;;;;;;5074147;28;20166;-82
2023/09/06 13:42:12;;;;;;;4.38;3.35;;;;;;;;;;5059639;28;20208;-81
2023/09/06 13:44:38;;;;;;;3.67;3.38;;;;;;;;;;5058550;28;20153;-81
2023/09/06 13:47:04;;;;;;;3.65;3.35;;;;;;;;;;5074954;28;20173;-81
2023/09/06 13:49:30;;;;;;;3.95;3.65;;;;;;;;;;5079019;28;20520;-81
2023/09/06 13:51:56;;;;;;;3.10;2.80;;;;;;;;;;5060611;28;20704;-81
2023/09/06 13:54:23;;;;;;;3.42;3.22;;;;;;;;;;5078270;28;20196;-81
2023/09/06 13:56:49;;;;;;;3.70;3.40;;;;;;;;;;5080214;28;20199;-81
2023/09/06 13:59:19;;;;;;;3.90;3.60;;;;;;;;;;5079779;28;20181;-81
2023/09/06 14:01:45;;;;;;;4.03;3.67;;;;;;;;;;5068877;28;20206;-81
2023/09/06 14:04:11;;;;;;;4.72;4.32;;;;;;;;;;5061680;28;20219;-82
2023/09/06 14:06:38;;;;;;;4.45;4.05;;;;;;;;;;5067268;28;20240;-81
2023/09/06 14:09:04;;;;;;;4.60;3.90;;;;;;;;;;5063355;28;20287;-81
2023/09/06 14:11:30;;;;;;;3.65;3.35;;;;;;;;;;5059158;28;20169;-81
2023/09/06 14:13:56;;;;;;;3.53;3.28;;;;;;;;;;5076253;28;20250;-81
2023/09/06 14:16:23;;;;;;;5.43;3.45;;;;;;;;;;5070504;28;20204;-81
2023/09/06 14:18:49;;;;;;;3.28;3.08;;;;;;;;;;5078647;28;20272;-82
2023/09/06 14:21:20;;;;;;;4.70;4.22;;;;;;;;;;5068273;28;20180;-81
2023/09/06 14:23:48;;;;;;;3.88;3.58;;;;;;;;;;5077863;28;20200;-80
2023/09/06 14:26:14;;;;;;;3.85;3.55;;;;;;;;;;5078792;28;20165;-81
2023/09/06 14:28:40;;;;;;;3.85;3.55;;;;;;;;;;5078860;28;20201;-79
2023/09/06 14:31:10;;;;;;;4.32;3.40;;;;;;;;;;5077272;28;20176;-79
2023/09/06 14:33:36;;;;;;;4.05;3.63;;;;;;;;;;5066715;28;20184;-80
2023/09/06 14:36:02;;;;;;;3.67;3.38;;;;;;;;;;5076984;28;20632;-80
2023/09/06 14:38:29;;;;;;;2.95;2.75;;;;;;;;;;5077254;28;20148;-80
2023/09/06 14:40:55;;;;;;;3.03;2.83;;;;;;;;;;5075689;28;20176;-80
2023/09/06 14:43:23;;;;;;;4.57;3.45;;;;;;;;;;5075344;28;20235;-80
2023/09/06 14:45:49;;;;;;;4.88;3.08;;;;;;;;;;5075277;28;20165;-79